createdAt,value
2019-05-21T00:05:49.565Z,33.13
2019-05-21T00:11:55.348Z,34.10
2019-05-21T00:18:01.160Z,35.17
2019-05-21T00:24:07.161Z,30.93
2019-05-21T00:31:07.027Z,27.37
2019-05-21T00:38:06.608Z,26.40
2019-05-21T00:44:12.391Z,30.53
2019-05-21T00:50:19.419Z,32.73
2019-05-21T00:56:25.335Z,33.57
2019-05-21T01:02:31.295Z,29.40
2019-05-21T01:08:37.105Z,25.23
2019-05-21T01:14:42.877Z,24.47
2019-05-21T01:20:48.646Z,25.93
2019-05-21T01:26:54.397Z,27.77
2019-05-21T01:33:00.173Z,27.17
2019-05-21T01:39:07.304Z,25.60
2019-05-21T01:45:13.530Z,25.53
2019-05-21T01:51:20.242Z,24.37
2019-05-21T01:57:25.964Z,24.07
2019-05-21T02:03:31.706Z,25.50
2019-05-21T02:09:56.305Z,26.53
2019-05-21T02:16:02.566Z,29.03
2019-05-21T02:22:08.472Z,30.70
2019-05-21T02:28:14.458Z,30.37
2019-05-21T02:34:20.266Z,33.73
2019-05-21T02:40:26.830Z,36.30
2019-05-21T02:46:33.096Z,39.73
2019-05-21T02:52:39.013Z,38.43
2019-05-21T02:58:44.766Z,40.23
2019-05-21T03:04:50.510Z,30.40
2019-05-21T03:10:56.510Z,40.13
2019-05-21T03:17:02.270Z,55.47
2019-05-21T03:23:08.291Z,58.23
2019-05-21T03:29:14.318Z,57.63
2019-05-21T03:35:20.242Z,62.40
2019-05-21T03:41:26.441Z,62.97
2019-05-21T03:47:32.158Z,64.67
2019-05-21T03:53:38.858Z,63.27
2019-05-21T03:59:44.750Z,70.37
2019-05-21T04:05:50.759Z,68.73
2019-05-21T04:11:56.543Z,59.13
2019-05-21T04:18:07.885Z,59.03
2019-05-21T04:24:15.887Z,66.67
2019-05-21T04:30:21.633Z,70.90
2019-05-21T04:36:27.628Z,61.23
2019-05-21T04:42:33.543Z,55.50
2019-05-21T04:48:39.475Z,61.33
2019-05-21T04:54:45.495Z,57.67
2019-05-21T05:00:51.232Z,51.73
2019-05-21T05:06:57.037Z,47.60
2019-05-21T05:13:02.811Z,50.50
2019-05-21T05:19:08.550Z,49.70
2019-05-21T05:25:15.421Z,51.40
2019-05-21T05:31:21.552Z,51.97
2019-05-21T05:37:42.564Z,58.00
2019-05-21T05:43:35.268Z,58.37
2019-05-21T05:49:45.148Z,60.83
2019-05-21T05:55:50.886Z,56.10
2019-05-21T06:01:56.706Z,54.60
2019-05-21T06:08:02.763Z,48.90
2019-05-21T06:14:08.949Z,52.20
2019-05-21T06:20:15.681Z,41.50
2019-05-21T06:26:21.797Z,44.80
2019-05-21T06:32:27.765Z,45.97
2019-05-21T06:38:33.790Z,46.30
2019-05-21T06:44:41.445Z,47.63
2019-05-21T06:50:47.192Z,46.50
2019-05-21T06:56:53.005Z,50.90
2019-05-21T07:02:58.843Z,49.60
2019-05-21T07:09:05.886Z,45.77
2019-05-21T07:15:12.167Z,42.43
2019-05-21T07:21:18.848Z,43.73
2019-05-21T07:27:24.755Z,45.93
2019-05-21T07:33:30.531Z,47.63
2019-05-21T07:39:37.182Z,44.40
2019-05-21T07:45:43.035Z,43.47
2019-05-21T07:51:49.344Z,43.83
2019-05-21T07:57:55.215Z,39.33
2019-05-21T08:04:01.255Z,35.60
2019-05-21T08:10:08.536Z,38.57
2019-05-21T08:16:14.557Z,34.07
2019-05-21T08:22:20.414Z,42.57
2019-05-21T08:28:26.204Z,50.47
2019-05-21T08:34:32.015Z,46.33
2019-05-21T08:40:39.477Z,41.30
2019-05-21T08:46:45.620Z,45.67
2019-05-21T08:52:51.776Z,40.00
2019-05-21T08:58:57.676Z,36.97
2019-05-21T09:05:03.568Z,37.00
2019-05-21T09:11:09.815Z,39.50
2019-05-21T09:17:15.561Z,34.73
2019-05-21T09:23:21.372Z,36.80
2019-05-21T09:29:27.165Z,35.30
2019-05-21T09:35:32.884Z,34.67
2019-05-21T09:41:40.475Z,33.57
2019-05-21T09:47:46.380Z,34.23
2019-05-21T09:53:52.180Z,37.10
2019-05-21T10:00:06.551Z,35.10
2019-05-21T10:06:12.288Z,30.33
2019-05-21T10:12:18.398Z,34.43
2019-05-21T10:18:24.272Z,35.60
2019-05-21T10:24:30.604Z,34.53
2019-05-21T10:30:37.231Z,37.07
2019-05-21T10:36:43.142Z,36.50
2019-05-21T10:42:48.878Z,33.03
2019-05-21T10:48:54.670Z,36.23
2019-05-21T10:55:00.594Z,30.90
2019-05-21T11:01:25.721Z,34.40
2019-05-21T11:07:31.816Z,33.03
2019-05-21T11:13:37.934Z,30.43
2019-05-21T11:19:43.916Z,33.13
2019-05-21T11:25:50.137Z,33.33
2019-05-21T11:31:57.648Z,31.97
2019-05-21T11:38:07.007Z,31.67
2019-05-21T11:44:13.129Z,29.63
2019-05-21T11:50:19.832Z,29.80
2019-05-21T11:56:25.997Z,32.40
2019-05-21T12:02:31.936Z,26.57
2019-05-21T12:08:37.830Z,29.57
2019-05-21T12:14:43.881Z,29.23
2019-05-21T12:20:49.692Z,25.73
2019-05-21T12:26:55.486Z,29.27
2019-05-21T12:33:01.497Z,29.03
2019-05-21T12:39:14.271Z,31.23
2019-05-21T12:45:17.639Z,30.90
2019-05-21T12:51:24.613Z,27.57
2019-05-21T12:57:30.405Z,30.83
2019-05-21T13:03:36.947Z,29.43
2019-05-21T13:09:42.839Z,29.93
2019-05-21T13:15:49.016Z,28.43
2019-05-21T13:21:54.979Z,30.47
2019-05-21T13:28:00.976Z,28.80
2019-05-21T13:34:07.230Z,30.47
2019-05-21T13:40:13.580Z,26.97
2019-05-21T13:46:19.573Z,19.73
2019-05-21T13:52:25.787Z,26.13
2019-05-21T13:58:32.895Z,24.30
2019-05-21T14:04:39.046Z,23.70
2019-05-21T14:10:44.903Z,27.37
2019-05-21T14:16:50.784Z,23.03
2019-05-21T14:22:56.623Z,23.37
2019-05-21T14:29:02.444Z,22.97
2019-05-21T14:35:08.671Z,23.37
2019-05-21T14:41:14.587Z,19.77
2019-05-21T14:47:20.567Z,20.93
2019-05-21T14:53:27.485Z,21.40
2019-05-21T14:59:33.520Z,21.23
2019-05-21T15:05:39.654Z,20.47
2019-05-21T15:11:45.477Z,21.93
2019-05-21T15:17:51.333Z,21.03
2019-05-21T15:23:57.588Z,21.40
2019-05-21T15:30:03.922Z,23.23
2019-05-21T15:36:09.945Z,23.07
2019-05-21T15:42:15.832Z,23.83
2019-05-21T15:48:26.039Z,23.87
2019-05-21T15:54:30.270Z,23.37
2019-05-21T16:00:36.150Z,23.77
2019-05-21T16:06:42.026Z,26.43
2019-05-21T16:12:47.949Z,24.53
2019-05-21T16:18:53.992Z,25.83
2019-05-21T16:24:59.851Z,23.87
2019-05-21T16:31:05.675Z,24.23
2019-05-21T16:37:12.063Z,24.07
2019-05-21T16:43:18.415Z,24.93
2019-05-21T16:49:25.624Z,23.57
2019-05-21T16:55:32.357Z,22.87
2019-05-21T17:01:38.139Z,23.20
2019-05-21T17:07:43.973Z,23.23
2019-05-21T17:13:50.098Z,22.37
2019-05-21T17:19:56.035Z,23.73
2019-05-21T17:26:02.356Z,23.17
2019-05-21T17:32:08.663Z,23.60
2019-05-21T17:38:16.428Z,25.13
2019-05-21T17:44:24.888Z,25.33
2019-05-21T17:50:29.833Z,25.80
2019-05-21T17:56:37.694Z,23.13
2019-05-21T18:09:02.346Z,24.83
2019-05-21T18:15:12.434Z,25.83
2019-05-21T18:21:18.682Z,26.80
2019-05-21T18:27:25.032Z,31.07
2019-05-21T18:33:30.783Z,32.27
2019-05-21T18:39:37.686Z,32.73
2019-05-21T18:45:44.068Z,34.87
2019-05-21T18:51:50.123Z,30.67
2019-05-21T18:57:56.319Z,30.93
2019-05-21T19:04:02.136Z,28.50
2019-05-21T19:10:08.674Z,28.83
2019-05-21T19:16:14.497Z,29.77
2019-05-21T19:22:20.582Z,30.87
2019-05-21T19:28:26.396Z,30.23
2019-05-21T19:34:32.242Z,28.60
2019-05-21T19:40:38.269Z,27.97
2019-05-21T19:46:44.219Z,27.47
2019-05-21T19:52:50.016Z,27.20
2019-05-21T19:58:55.953Z,26.93
2019-05-21T20:05:02.362Z,27.43
2019-05-21T20:11:09.366Z,25.43
2019-05-21T20:17:17.176Z,26.77
2019-05-21T20:23:24.862Z,30.60
2019-05-21T20:29:31.260Z,27.93
2019-05-21T20:35:38.309Z,27.43
2019-05-21T20:41:44.828Z,26.37
2019-05-21T20:47:52.350Z,27.17
2019-05-21T20:53:58.952Z,29.17
2019-05-21T21:00:05.718Z,28.83
2019-05-21T21:06:12.605Z,27.33
2019-05-21T21:12:19.409Z,29.63
2019-05-21T21:18:25.897Z,32.70
2019-05-21T21:24:31.836Z,32.23
2019-05-21T21:30:37.797Z,32.57
2019-05-21T21:36:44.122Z,32.53
2019-05-21T21:42:50.306Z,32.83
2019-05-21T21:48:56.751Z,33.17
2019-05-21T21:55:02.612Z,33.20
2019-05-21T22:01:46.577Z,35.43
2019-05-21T22:07:54.053Z,36.77
2019-05-21T22:14:00.813Z,36.20
2019-05-21T22:20:09.767Z,36.07
2019-05-21T22:26:15.762Z,38.83
2019-05-21T22:32:21.901Z,37.93
2019-05-21T22:38:28.441Z,37.33
2019-05-21T22:44:34.755Z,38.43
2019-05-21T22:50:40.686Z,37.47
2019-05-21T22:56:46.480Z,37.20
2019-05-21T23:02:52.862Z,34.43
2019-05-21T23:08:58.809Z,38.03
2019-05-21T23:15:04.929Z,38.97
2019-05-21T23:21:11.250Z,39.87
2019-05-21T23:27:17.722Z,40.43
2019-05-21T23:33:23.987Z,38.43
2019-05-21T23:39:31.445Z,42.67
2019-05-21T23:45:37.285Z,40.60
2019-05-21T23:51:43.565Z,46.27
2019-05-21T23:57:49.596Z,50.40
